Time;durP1;ratioP1;P1;durP2;ratioP2;P2;SDS_P1;SDS_P2;PMS_P1;PMS_P2;Temp;Humidity;BMP_temperature;BMP_pressure;BME280_temperature;BME280_humidity;BME280_pressure;Samples;Min_cycle;Max_cycle;Signal;HPM_P1;HPM_P2
2023/05/23 00:01:01;;;;;;;;;;;;;;;;;;4957557;28;20021;-82
2023/05/23 00:03:27;;;;;;;;;;;;;;;;;;4973790;28;20405;-82
2023/05/23 00:05:53;;;;;;;;;;;;;;;;;;4973743;28;19977;-82
2023/05/23 00:08:19;;;;;;;;;;;;;;;;;;4957625;28;20335;-82
2023/05/23 00:10:45;;;;;;;;;;;;;;;;;;4957528;28;19926;-82
2023/05/23 00:13:14;;;;;;;;;;;;;;;;;;4957599;28;19973;-82
2023/05/23 00:15:43;;;;;;;;;;;;;;;;;;4957646;28;19922;-82
2023/05/23 00:18:09;;;;;;;;;;;;;;;;;;4957890;28;20402;-82
2023/05/23 00:20:35;;;;;;;;;;;;;;;;;;4957789;28;19930;-82
2023/05/23 00:23:02;;;;;;;;;;;;;;;;;;4957825;28;19922;-82
2023/05/23 00:25:32;;;;;;;;;;;;;;;;;;4957548;28;20017;-82
2023/05/23 00:27:58;;;;;;;;;;;;;;;;;;4973799;28;20446;-82
2023/05/23 00:30:24;;;;;;;;;;;;;;;;;;4957200;28;20016;-82
2023/05/23 00:32:53;;;;;;;;;;;;;;;;;;4957335;28;19928;-83
2023/05/23 00:35:19;;;;;;;;;;;;;;;;;;4957407;28;20295;-83
2023/05/23 00:37:45;;;;;;;;;;;;;;;;;;4957413;28;19922;-83
2023/05/23 00:40:10;;;;;;;;;;;;;;;;;;4957240;28;20396;-82
2023/05/23 00:42:36;;;;;;;;;;;;;;;;;;4957180;28;19936;-83
2023/05/23 00:45:02;;;;;;;;;;;;;;;;;;4957392;28;20453;-83
2023/05/23 00:47:28;;;;;;;;;;;;;;;;;;4957518;28;19922;-82
2023/05/23 00:49:54;;;;;;;;;;;;;;;;;;4956763;28;19934;-82
2023/05/23 00:52:20;;;;;;;;;;;;;;;;;;4957233;28;19929;-82
2023/05/23 00:54:46;;;;;;;;;;;;;;;;;;4957570;28;20013;-82
2023/05/23 00:57:12;;;;;;;;;;;;;;;;;;4957153;28;19973;-82
2023/05/23 00:59:38;;;;;;;;;;;;;;;;;;4957082;28;19922;-82
2023/05/23 01:02:04;;;;;;;;;;;;;;;;;;4957016;28;19926;-82
2023/05/23 01:04:32;;;;;;;;;;;;;;;;;;4957158;28;19922;-82
2023/05/23 01:06:59;;;;;;;;;;;;;;;;;;4958795;28;20351;-82
2023/05/23 01:09:26;;;;;;;;;;;;;;;;;;4960834;28;19926;-82
2023/05/23 01:11:51;;;;;;;;;;;;;;;;;;4960798;28;19929;-82
2023/05/23 01:14:17;;;;;;;;;;;;;;;;;;4961051;28;19922;-83
2023/05/23 01:16:47;;;;;;;;;;;;;;;;;;4961034;28;19977;-82
2023/05/23 01:19:13;;;;;;;;;;;;;;;;;;4960699;28;19922;-82
2023/05/23 01:21:39;;;;;;;;;;;;;;;;;;4960447;28;20268;-82
2023/05/23 01:24:05;;;;;;;;;;;;;;;;;;4960620;28;20339;-83
2023/05/23 01:26:31;;;;;;;;;;;;;;;;;;4976565;28;19922;-83
2023/05/23 01:28:57;;;;;;;;;;;;;;;;;;4960552;28;20371;-82
2023/05/23 01:31:23;;;;;;;;;;;;;;;;;;4960297;28;19929;-82
2023/05/23 01:33:49;;;;;;;;;;;;;;;;;;4960384;28;19930;-82
2023/05/23 01:36:15;;;;;;;;;;;;;;;;;;4960336;28;19945;-82
2023/05/23 01:38:41;;;;;;;;;;;;;;;;;;4976199;28;20387;-82
2023/05/23 01:41:07;;;;;;;;;;;;;;;;;;4976184;28;19926;-82
2023/05/23 01:43:33;;;;;;;;;;;;;;;;;;4976228;28;19929;-82
2023/05/23 01:45:59;;;;;;;;;;;;;;;;;;4960146;28;19922;-82
2023/05/23 01:48:25;;;;;;;;;;;;;;;;;;4960060;28;19968;-82
2023/05/23 01:50:51;;;;;;;;;;;;;;;;;;4959909;28;20430;-82
2023/05/23 01:53:17;;;;;;;;;;;;;;;;;;4960152;28;20041;-82
2023/05/23 01:55:43;;;;;;;;;;;;;;;;;;4960131;28;20362;-82
2023/05/23 01:58:09;;;;;;;;;;;;;;;;;;4959949;28;20346;-82
2023/05/23 02:00:35;;;;;;;;;;;;;;;;;;4959914;28;20013;-82
2023/05/23 02:03:01;;;;;;;;;;;;;;;;;;4960254;28;20376;-82
2023/05/23 02:05:27;;;;;;;;;;;;;;;;;;4960118;28;20021;-82
2023/05/23 02:07:53;;;;;;;;;;;;;;;;;;4959841;28;19973;-82
2023/05/23 02:10:19;;;;;;;;;;;;;;;;;;4959529;28;19933;-82
2023/05/23 02:12:45;;;;;;;;;;;;;;;;;;4959836;28;19922;-82
2023/05/23 02:15:11;;;;;;;;;;;;;;;;;;4959708;28;20466;-82
2023/05/23 02:17:41;;;;;;;;;;;;;;;;;;4959298;28;19976;-82
2023/05/23 02:20:07;;;;;;;;;;;;;;;;;;4959575;28;19929;-82
2023/05/23 02:22:33;;;;;;;;;;;;;;;;;;4975702;28;20319;-82
2023/05/23 02:24:59;;;;;;;;;;;;;;;;;;4959903;28;19965;-82
2023/05/23 02:27:25;;;;;;;;;;;;;;;;;;4959457;28;20453;-82
2023/05/23 02:29:51;;;;;;;;;;;;;;;;;;4959207;28;19926;-83
2023/05/23 02:32:17;;;;;;;;;;;;;;;;;;4959388;28;20283;-82
2023/05/23 02:34:45;;;;;;;;;;;;;;;;;;4959440;28;19922;-82
2023/05/23 02:37:11;;;;;;;;;;;;;;;;;;4959301;28;19929;-82
2023/05/23 02:39:37;;;;;;;;;;;;;;;;;;4959177;28;19922;-82
2023/05/23 02:42:03;;;;;;;;;;;;;;;;;;4959185;28;19945;-82
2023/05/23 02:44:29;;;;;;;;;;;;;;;;;;4975285;28;19922;-82
2023/05/23 02:46:55;;;;;;;;;;;;;;;;;;4959164;28;20334;-82
2023/05/23 02:49:21;;;;;;;;;;;;;;;;;;4958827;28;19981;-83
2023/05/23 02:51:47;;;;;;;;;;;;;;;;;;4975487;28;19922;-82
2023/05/23 02:54:13;;;;;;;;;;;;;;;;;;4959282;28;20020;-83
2023/05/23 02:56:39;;;;;;;;;;;;;;;;;;4958970;28;19957;-82
2023/05/23 02:59:05;;;;;;;;;;;;;;;;;;4975010;28;20409;-82
2023/05/23 03:01:31;;;;;;;;;;;;;;;;;;4958792;28;19922;-82
2023/05/23 03:03:57;;;;;;;;;;;;;;;;;;4958857;28;19972;-82
2023/05/23 03:06:23;;;;;;;;;;;;;;;;;;4958779;28;20375;-82
2023/05/23 03:08:49;;;;;;;;;;;;;;;;;;4958628;28;20383;-82
2023/05/23 03:11:15;;;;;;;;;;;;;;;;;;4958560;28;19929;-82
2023/05/23 03:13:41;;;;;;;;;;;;;;;;;;4958772;28;19926;-83
2023/05/23 03:16:11;;;;;;;;;;;;;;;;;;4958447;28;19923;-82
2023/05/23 03:18:37;;;;;;;;;;;;;;;;;;4974703;28;19932;-82
2023/05/23 03:21:03;;;;;;;;;;;;;;;;;;4958380;28;20005;-82
2023/05/23 03:23:28;;;;;;;;;;;;;;;;;;4958409;28;19965;-82
2023/05/23 03:25:54;;;;;;;;;;;;;;;;;;4958389;28;20017;-82
2023/05/23 03:28:20;;;;;;;;;;;;;;;;;;4958203;28;20613;-82
2023/05/23 03:30:46;;;;;;;;;;;;;;;;;;4957498;28;19926;-82
2023/05/23 03:33:12;;;;;;;;;;;;;;;;;;4958612;28;20261;-82
2023/05/23 03:35:38;;;;;;;;;;;;;;;;;;4958540;28;19922;-82
2023/05/23 03:38:04;;;;;;;;;;;;;;;;;;4958168;28;19926;-82
2023/05/23 03:40:30;;;;;;;;;;;;;;;;;;4958068;28;19923;-82
2023/05/23 03:42:56;;;;;;;;;;;;;;;;;;4958315;28;20012;-82
2023/05/23 03:45:22;;;;;;;;;;;;;;;;;;4958307;28;19922;-82
2023/05/23 03:47:48;;;;;;;;;;;;;;;;;;4957771;28;19922;-82
2023/05/23 03:50:13;;;;;;;;;;;;;;;;;;4957442;28;19926;-82
2023/05/23 03:52:39;;;;;;;;;;;;;;;;;;4958120;28;19926;-82
2023/05/23 03:55:05;;;;;;;;;;;;;;;;;;4958140;28;19958;-82
2023/05/23 03:57:31;;;;;;;;;;;;;;;;;;4957949;28;20032;-82
2023/05/23 03:59:57;;;;;;;;;;;;;;;;;;4957908;28;19922;-82
2023/05/23 04:02:23;;;;;;;;;;;;;;;;;;4957264;28;19992;-82
2023/05/23 04:04:50;;;;;;;;;;;;;;;;;;4957116;28;20458;-82
2023/05/23 04:07:16;;;;;;;;;;;;;;;;;;4970822;28;19957;-82
2023/05/23 04:09:42;;;;;;;;;;;;;;;;;;4953559;29;19965;-82
2023/05/23 04:12:08;;;;;;;;;;;;;;;;;;4957485;28;19922;-82
2023/05/23 04:14:34;;;;;;;;;;;;;;;;;;4957730;28;19925;-82
2023/05/23 04:17:00;;;;;;;;;;;;;;;;;;4943245;29;20003;-82
2023/05/23 04:19:26;;;;;;;;;;;;;;;;;;4954328;29;19926;-82
2023/05/23 04:21:52;;;;;;;;;;;;;;;;;;4954378;28;20386;-82
2023/05/23 04:24:18;;;;;;;;;;;;;;;;;;4954578;29;19929;-82
2023/05/23 04:26:44;;;;;;;;;;;;;;;;;;4942537;28;19926;-82
2023/05/23 04:29:11;;;;;;;;;;;;;;;;;;4953234;28;19933;-82
2023/05/23 04:31:36;;;;;;;;;;;;;;;;;;4965969;28;19973;-83
2023/05/23 04:34:02;;;;;;;;;;;;;;;;;;4953032;28;19922;-82
2023/05/23 04:36:29;;;;;;;;;;;;;;;;;;4957631;28;19961;-83
2023/05/23 04:38:55;;;;;;;;;;;;;;;;;;4959894;28;20013;-83
2023/05/23 04:41:23;;;;;;;;;;;;;;;;;;4943076;28;20426;-82
2023/05/23 04:43:53;;;;;;;;;;;;;;;;;;4955963;28;19922;-83
2023/05/23 04:46:21;;;;;;;;;;;;;;;;;;4938127;29;19922;-82
2023/05/23 04:48:47;;;;;;;;;;;;;;;;;;4937970;29;19973;-83
2023/05/23 04:51:13;;;;;;;;;;;;;;;;;;4938477;28;19922;-83
2023/05/23 04:53:39;;;;;;;;;;;;;;;;;;4945628;29;19923;-82
2023/05/23 04:56:07;;;;;;;;;;;;;;;;;;4938345;29;20478;-83
2023/05/23 04:58:33;;;;;;;;;;;;;;;;;;4938106;29;19984;-82
2023/05/23 05:00:59;;;;;;;;;;;;;;;;;;4937709;29;20431;-83
2023/05/23 05:03:25;;;;;;;;;;;;;;;;;;4937909;29;19977;-83
2023/05/23 05:05:51;;;;;;;;;;;;;;;;;;4939377;28;19945;-82
2023/05/23 05:08:18;;;;;;;;;;;;;;;;;;4957039;28;19922;-83
2023/05/23 05:10:44;;;;;;;;;;;;;;;;;;4956908;28;19930;-82
2023/05/23 05:13:10;;;;;;;;;;;;;;;;;;4948840;29;20463;-82
2023/05/23 05:15:36;;;;;;;;;;;;;;;;;;4969532;28;19922;-82
2023/05/23 05:18:02;;;;;;;;;;;;;;;;;;4953050;28;19922;-82
2023/05/23 05:20:28;;;;;;;;;;;;;;;;;;4956889;28;19945;-82
2023/05/23 05:22:54;;;;;;;;;;;;;;;;;;4957072;28;20013;-82
2023/05/23 05:25:19;;;;;;;;;;;;;;;;;;4956788;28;19928;-82
2023/05/23 05:27:45;;;;;;;;;;;;;;;;;;4972316;28;19927;-83
2023/05/23 05:30:11;;;;;;;;;;;;;;;;;;4937579;29;20025;-82
2023/05/23 05:32:37;;;;;;;;;;;;;;;;;;4937552;29;19969;-82
2023/05/23 05:35:03;;;;;;;;;;;;;;;;;;4944866;28;19922;-82
2023/05/23 05:37:29;;;;;;;;;;;;;;;;;;4956683;28;19922;-82
2023/05/23 05:39:55;;;;;;;;;;;;;;;;;;4946245;29;20387;-83
2023/05/23 05:42:21;;;;;;;;;;;;;;;;;;4941432;29;19929;-83
2023/05/23 05:44:47;;;;;;;;;;;;;;;;;;4937624;29;19930;-82
2023/05/23 05:47:13;;;;;;;;;;;;;;;;;;4953834;29;19930;-82
2023/05/23 05:49:38;;;;;;;;;;;;;;;;;;4941379;28;19926;-83
2023/05/23 05:52:05;;;;;;;;;;;;;;;;;;4953284;28;19988;-82
2023/05/23 05:54:31;;;;;;;;;;;;;;;;;;4960083;28;19922;-82
2023/05/23 05:56:57;;;;;;;;;;;;;;;;;;4976253;28;19929;-82
2023/05/23 05:59:23;;;;;;;;;;;;;;;;;;4960171;28;20394;-83
2023/05/23 06:01:50;;;;;;;;;;;;;;;;;;4960086;28;19929;-82
2023/05/23 06:04:16;;;;;;;;;;;;;;;;;;4954612;28;19926;-82
2023/05/23 06:06:41;;;;;;;;;;;;;;;;;;4957147;28;20414;-82
2023/05/23 06:09:07;;;;;;;;;;;;;;;;;;4959614;28;19923;-82
2023/05/23 06:11:33;;;;;;;;;;;;;;;;;;4940485;29;20848;-82
2023/05/23 06:13:59;;;;;;;;;;;;;;;;;;4940565;29;19958;-82
2023/05/23 06:16:25;;;;;;;;;;;;;;;;;;4946958;28;19922;-82
2023/05/23 06:18:51;;;;;;;;;;;;;;;;;;4959536;28;19929;-82
2023/05/23 06:21:17;;;;;;;;;;;;;;;;;;4959555;28;19922;-82
2023/05/23 06:23:43;;;;;;;;;;;;;;;;;;4959596;28;19967;-82
2023/05/23 06:26:09;;;;;;;;;;;;;;;;;;4959525;28;19937;-82
2023/05/23 06:28:35;;;;;;;;;;;;;;;;;;4955334;28;19922;-82
2023/05/23 06:31:01;;;;;;;;;;;;;;;;;;4940098;29;20285;-82
2023/05/23 06:33:27;;;;;;;;;;;;;;;;;;4958854;28;19923;-82
2023/05/23 06:35:53;;;;;;;;;;;;;;;;;;4953028;28;19989;-82
2023/05/23 06:38:24;;;;;;;;;;;;;;;;;;4946202;28;19926;-82
2023/05/23 06:40:50;;;;;;;;;;;;;;;;;;4959452;28;19922;-82
2023/05/23 06:43:15;;;;;;;;;;;;;;;;;;4959248;28;19976;-82
2023/05/23 06:45:41;;;;;;;;;;;;;;;;;;4975356;28;19922;-82
2023/05/23 06:48:07;;;;;;;;;;;;;;;;;;4959070;28;19937;-82
2023/05/23 06:50:33;;;;;;;;;;;;;;;;;;4966891;28;20001;-82
2023/05/23 06:52:59;;;;;;;;;;;;;;;;;;4951033;28;20005;-82
2023/05/23 06:55:26;;;;;;;;;;;;;;;;;;4940003;29;19923;-82
2023/05/23 06:57:51;;;;;;;;;;;;;;;;;;4955596;29;19922;-82
2023/05/23 07:00:17;;;;;;;;;;;;;;;;;;4945061;28;20069;-82
2023/05/23 07:02:49;;;;;;;;;;;;;;;;;;4958524;28;19922;-82
2023/05/23 07:05:16;;;;;;;;;;;;;;;;;;4957361;28;19922;-82
2023/05/23 07:07:42;;;;;;;;;;;;;;;;;;4945480;29;19929;-82
2023/05/23 07:10:08;;;;;;;;;;;;;;;;;;4939126;29;20302;-82
2023/05/23 07:12:33;;;;;;;;;;;;;;;;;;4939544;28;20391;-83
2023/05/23 07:14:59;;;;;;;;;;;;;;;;;;4971465;28;19922;-82
2023/05/23 07:17:28;;;;;;;;;;;;;;;;;;4954603;28;20328;-82
2023/05/23 07:19:54;;;;;;;;;;;;;;;;;;4958323;28;19926;-82
2023/05/23 07:22:20;;;;;;;;;;;;;;;;;;4958373;28;19929;-82
2023/05/23 07:24:46;;;;;;;;;;;;;;;;;;4974531;28;19961;-82
2023/05/23 07:27:12;;;;;;;;;;;;;;;;;;4958345;28;19922;-82
2023/05/23 07:29:38;;;;;;;;;;;;;;;;;;4945503;29;19981;-83
2023/05/23 07:32:04;;;;;;;;;;;;;;;;;;4970449;28;19968;-82
2023/05/23 07:34:30;;;;;;;;;;;;;;;;;;4951337;28;19949;-82
2023/05/23 07:36:55;;;;;;;;;;;;;;;;;;4958240;28;20383;-82
2023/05/23 07:39:23;;;;;;;;;;;;;;;;;;4957681;28;19937;-83
2023/05/23 07:41:49;;;;;;;;;;;;;;;;;;4956231;28;20563;-82
2023/05/23 07:44:15;;;;;;;;;;;;;;;;;;4950432;28;19933;-82
2023/05/23 07:46:41;;;;;;;;;;;;;;;;;;4973706;28;19953;-82
2023/05/23 07:49:06;;;;;;;;;;;;;;;;;;4957409;28;19923;-82
2023/05/23 07:51:32;;;;;;;;;;;;;;;;;;4973652;28;19930;-82
2023/05/23 07:53:58;;;;;;;;;;;;;;;;;;4957299;28;19922;-82
2023/05/23 07:56:25;;;;;;;;;;;;;;;;;;4956879;28;19965;-83
2023/05/23 07:58:51;;;;;;;;;;;;;;;;;;4957565;28;19922;-82
2023/05/23 08:01:17;;;;;;;;;;;;;;;;;;4973451;28;19922;-82
2023/05/23 08:03:43;;;;;;;;;;;;;;;;;;4957485;28;19922;-82
2023/05/23 08:06:12;;;;;;;;;;;;;;;;;;4973909;28;19922;-82
2023/05/23 08:08:37;;;;;;;;;;;;;;;;;;4972455;28;19933;-82
2023/05/23 08:11:03;;;;;;;;;;;;;;;;;;4972283;28;19930;-82
2023/05/23 08:13:29;;;;;;;;;;;;;;;;;;4957210;28;19978;-82
2023/05/23 08:15:55;;;;;;;;;;;;;;;;;;4957012;28;20732;-82
2023/05/23 08:18:21;;;;;;;;;;;;;;;;;;4973648;28;20402;-82
2023/05/23 08:20:47;;;;;;;;;;;;;;;;;;4957516;28;19926;-82
2023/05/23 08:23:23;;;;;;;;;;;;;;;;;;4957522;28;19930;-81
2023/05/23 08:25:49;;;;;;;;;;;;;;;;;;4946653;29;19922;-82
2023/05/23 08:28:15;;;;;;;;;;;;;;;;;;4954930;28;20359;-82
2023/05/23 08:30:41;;;;;;;;;;;;;;;;;;4957055;28;20343;-82
2023/05/23 08:33:07;;;;;;;;;;;;;;;;;;4949975;28;19933;-83
2023/05/23 08:35:35;;;;;;;;;;;;;;;;;;4972876;28;20012;-83
2023/05/23 08:38:01;;;;;;;;;;;;;;;;;;4973267;28;19972;-83
2023/05/23 08:40:28;;;;;;;;;;;;;;;;;;4957147;28;19926;-81
2023/05/23 08:42:54;;;;;;;;;;;;;;;;;;4968445;28;19922;-81
2023/05/23 08:45:20;;;;;;;;;;;;;;;;;;4961529;28;20005;-81
2023/05/23 08:47:46;;;;;;;;;;;;;;;;;;4951410;28;19923;-82
2023/05/23 08:50:12;;;;;;;;;;;;;;;;;;4960255;28;19996;-82
2023/05/23 08:52:38;;;;;;;;;;;;;;;;;;4957082;28;19968;-82
2023/05/23 08:55:04;;;;;;;;;;;;;;;;;;4957446;28;19973;-81
2023/05/23 08:57:30;;;;;;;;;;;;;;;;;;4957101;28;20001;-81
2023/05/23 08:59:56;;;;;;;;;;;;;;;;;;4957018;28;19968;-82
2023/05/23 09:02:22;;;;;;;;;;;;;;;;;;4951373;28;20440;-81
2023/05/23 09:04:48;;;;;;;;;;;;;;;;;;4959153;28;20384;-82
2023/05/23 09:07:15;;;;;;;;;;;;;;;;;;4954662;28;19942;-81
2023/05/23 09:09:41;;;;;;;;;;;;;;;;;;4968401;28;19933;-82
2023/05/23 09:12:07;;;;;;;;;;;;;;;;;;4968676;28;20375;-81
2023/05/23 09:14:33;;;;;;;;;;;;;;;;;;4955608;28;19922;-81
2023/05/23 09:16:59;;;;;;;;;;;;;;;;;;4937904;29;20332;-81
2023/05/23 09:19:25;;;;;;;;;;;;;;;;;;4954923;28;19972;-82
2023/05/23 09:21:51;;;;;;;;;;;;;;;;;;4973542;28;19961;-82
2023/05/23 09:24:16;;;;;;;;;;;;;;;;;;4955418;28;20324;-82
2023/05/23 09:26:42;;;;;;;;;;;;;;;;;;4952564;28;19929;-82
2023/05/23 09:29:08;;;;;;;;;;;;;;;;;;4959210;28;19944;-82
2023/05/23 09:31:34;;;;;;;;;;;;;;;;;;4959957;28;19992;-81
2023/05/23 09:34:00;;;;;;;;;;;;;;;;;;4960349;28;19968;-82
2023/05/23 09:36:28;;;;;;;;;;;;;;;;;;4960116;28;20437;-82
2023/05/23 09:38:54;;;;;;;;;;;;;;;;;;4959299;28;19921;-82
2023/05/23 09:41:20;;;;;;;;;;;;;;;;;;4959599;28;20355;-82
2023/05/23 09:43:46;;;;;;;;;;;;;;;;;;4958219;28;20210;-82
2023/05/23 09:46:20;;;;;;;;;;;;;;;;;;4976741;28;19936;-82
2023/05/23 09:48:45;;;;;;;;;;;;;;;;;;4961456;28;19953;-81
2023/05/23 09:51:11;;;;;;;;;;;;;;;;;;4984204;28;19926;-82
2023/05/23 09:53:39;;;;;;;;;;;;;;;;;;4951752;28;22277;-82
2023/05/23 09:56:05;;;;;;;;;;;;;;;;;;4960033;28;20320;-82
2023/05/23 09:58:31;;;;;;;;;;;;;;;;;;4960168;28;20367;-82
2023/05/23 10:00:59;;;;;;;;;;;;;;;;;;4974976;28;19922;-82
2023/05/23 10:03:25;;;;;;;;;;;;;;;;;;4959261;28;19932;-82
2023/05/23 10:05:51;;;;;;;;;;;;;;;;;;4968048;28;19922;-82
2023/05/23 10:08:28;;;;;;;;;;;;;;;;;;4952713;28;19945;-82
2023/05/23 10:10:54;;;;;;;;;;;;;;;;;;4968297;28;20409;-82
2023/05/23 10:13:20;;;;;;;;;;;;;;;;;;4968532;28;20008;-82
2023/05/23 10:15:46;;;;;;;;;;;;;;;;;;4965922;28;19922;-82
2023/05/23 10:18:12;;;;;;;;;;;;;;;;;;4958883;28;20036;-82
2023/05/23 10:20:38;;;;;;;;;;;;;;;;;;4959217;28;20406;-82
2023/05/23 10:23:04;;;;;;;;;;;;;;;;;;4974455;28;19961;-82
2023/05/23 10:25:30;;;;;;;;;;;;;;;;;;4956536;28;19928;-81
2023/05/23 10:28:05;;;;;;;;;;;;;;;;;;4957372;28;19922;-82
2023/05/23 10:30:31;;;;;;;;;;;;;;;;;;4975130;28;19926;-82
2023/05/23 10:32:57;;;;;;;;;;;;;;;;;;4958992;28;19922;-81
2023/05/23 10:35:22;;;;;;;;;;;;;;;;;;4959313;28;19922;-81
2023/05/23 10:37:48;;;;;;;;;;;;;;;;;;4958940;28;19922;-81
2023/05/23 10:40:14;;;;;;;;;;;;;;;;;;4947523;29;19931;-82
2023/05/23 10:42:40;;;;;;;;;;;;;;;;;;4948089;29;19962;-81
2023/05/23 10:45:06;;;;;;;;;;;;;;;;;;4940331;29;19922;-81
2023/05/23 10:47:33;;;;;;;;;;;;;;;;;;4945502;28;19922;-81
2023/05/23 10:49:59;;;;;;;;;;;;;;;;;;4970864;28;20013;-81
2023/05/23 10:52:25;;;;;;;;;;;;;;;;;;4959043;28;19965;-82
2023/05/23 10:54:51;;;;;;;;;;;;;;;;;;4950917;29;19976;-81
2023/05/23 10:57:17;;;;;;;;;;;;;;;;;;4939820;29;20352;-81
2023/05/23 10:59:43;;;;;;;;;;;;;;;;;;4939614;29;20023;-82
2023/05/23 11:02:09;;;;;;;;;;;;;;;;;;4955821;29;20430;-82
2023/05/23 11:04:35;;;;;;;;;;;;;;;;;;4939748;29;19926;-81
2023/05/23 11:07:01;;;;;;;;;;;;;;;;;;4939711;29;19922;-81
2023/05/23 11:09:27;;;;;;;;;;;;;;;;;;4943399;28;19934;-82
2023/05/23 11:11:53;;;;;;;;;;;;;;;;;;4943970;28;19922;-81
2023/05/23 11:14:19;;;;;;;;;;;;;;;;;;4970665;28;20013;-81
2023/05/23 11:16:46;;;;;;;;;;;;;;;;;;4951010;29;19981;-81
2023/05/23 11:19:11;;;;;;;;;;;;;;;;;;4939517;29;19946;-81
2023/05/23 11:21:37;;;;;;;;;;;;;;;;;;4955355;29;19923;-81
2023/05/23 11:24:03;;;;;;;;;;;;;;;;;;4953221;28;20005;-81
2023/05/23 11:26:30;;;;;;;;;;;;;;;;;;4958402;28;20004;-82
2023/05/23 11:28:56;;;;;;;;;;;;;;;;;;4958438;28;20391;-82
2023/05/23 11:31:23;;;;;;;;;;;;;;;;;;4974376;28;19937;-82
2023/05/23 11:33:49;;;;;;;;;;;;;;;;;;4958159;28;19973;-82
2023/05/23 11:36:15;;;;;;;;;;;;;;;;;;4942649;28;19926;-82
2023/05/23 11:38:40;;;;;;;;;;;;;;;;;;4946311;28;19930;-81
2023/05/23 11:41:06;;;;;;;;;;;;;;;;;;4955360;28;19922;-82
2023/05/23 11:43:32;;;;;;;;;;;;;;;;;;4938952;29;19922;-82
2023/05/23 11:45:58;;;;;;;;;;;;;;;;;;4952402;28;20023;-82
2023/05/23 11:48:24;;;;;;;;;;;;;;;;;;4958122;28;19922;-82
2023/05/23 11:50:50;;;;;;;;;;;;;;;;;;4972788;28;20360;-82
2023/05/23 11:53:19;;;;;;;;;;;;;;;;;;4955090;29;19973;-82
2023/05/23 11:55:45;;;;;;;;;;;;;;;;;;4938768;29;19934;-82
2023/05/23 11:58:11;;;;;;;;;;;;;;;;;;4945755;28;19922;-82
2023/05/23 12:00:36;;;;;;;;;;;;;;;;;;4953579;28;20015;-82
2023/05/23 12:03:02;;;;;;;;;;;;;;;;;;4957796;28;19926;-81
2023/05/23 12:05:28;;;;;;;;;;;;;;;;;;4957666;28;19946;-82
2023/05/23 12:07:54;;;;;;;;;;;;;;;;;;4944487;29;19937;-82
2023/05/23 12:10:21;;;;;;;;;;;;;;;;;;4938265;29;19980;-82
2023/05/23 12:12:47;;;;;;;;;;;;;;;;;;4938527;28;20043;-82
2023/05/23 12:15:12;;;;;;;;;;;;;;;;;;4957462;28;20431;-82
2023/05/23 12:17:38;;;;;;;;;;;;;;;;;;4962534;28;19962;-82
2023/05/23 12:20:04;;;;;;;;;;;;;;;;;;4944974;28;19922;-82
2023/05/23 12:22:30;;;;;;;;;;;;;;;;;;4961727;28;19922;-82
2023/05/23 12:24:56;;;;;;;;;;;;;;;;;;4951894;29;19922;-81
2023/05/23 12:27:22;;;;;;;;;;;;;;;;;;4938696;29;20595;-82
2023/05/23 12:29:48;;;;;;;;;;;;;;;;;;4938394;29;19931;-82
2023/05/23 12:32:14;;;;;;;;;;;;;;;;;;4954090;28;19992;-82
2023/05/23 12:34:40;;;;;;;;;;;;;;;;;;4973499;28;19969;-82
2023/05/23 12:37:07;;;;;;;;;;;;;;;;;;4938843;29;20403;-82
2023/05/23 12:39:33;;;;;;;;;;;;;;;;;;4954200;29;20327;-82
2023/05/23 12:41:59;;;;;;;;;;;;;;;;;;4940155;28;19923;-82
2023/05/23 12:44:25;;;;;;;;;;;;;;;;;;4973479;28;19981;-82
2023/05/23 12:46:51;;;;;;;;;;;;;;;;;;4948169;28;20398;-82
2023/05/23 12:49:17;;;;;;;;;;;;;;;;;;4950162;28;19922;-82
2023/05/23 12:51:43;;;;;;;;;;;;;;;;;;4973141;28;19929;-82
2023/05/23 12:54:09;;;;;;;;;;;;;;;;;;4957263;28;19926;-81
2023/05/23 12:56:34;;;;;;;;;;;;;;;;;;4973410;28;20013;-81
2023/05/23 12:59:00;;;;;;;;;;;;;;;;;;4973324;28;19929;-82
2023/05/23 13:01:26;;;;;;;;;;;;;;;;;;4947883;28;20291;-81
2023/05/23 13:03:52;;;;;;;;;;;;;;;;;;4961773;28;19965;-82
2023/05/23 13:06:18;;;;;;;;;;;;;;;;;;4941994;29;20406;-82
2023/05/23 13:08:44;;;;;;;;;;;;;;;;;;4941850;29;19923;-82
2023/05/23 13:11:10;;;;;;;;;;;;;;;;;;4948999;28;19926;-82
2023/05/23 13:13:36;;;;;;;;;;;;;;;;;;4966081;28;20351;-82
2023/05/23 13:16:02;;;;;;;;;;;;;;;;;;4957769;29;19923;-82
2023/05/23 13:18:28;;;;;;;;;;;;;;;;;;4957705;29;19969;-82
2023/05/23 13:20:54;;;;;;;;;;;;;;;;;;4955103;28;19929;-82
2023/05/23 13:23:20;;;;;;;;;;;;;;;;;;4960717;28;19922;-82
2023/05/23 13:25:46;;;;;;;;;;;;;;;;;;4976830;28;20038;-82
2023/05/23 13:28:11;;;;;;;;;;;;;;;;;;4944685;29;20376;-82
2023/05/23 13:30:37;;;;;;;;;;;;;;;;;;4941341;29;19926;-82
2023/05/23 13:33:03;;;;;;;;;;;;;;;;;;4948648;28;20032;-82
2023/05/23 13:35:30;;;;;;;;;;;;;;;;;;4956748;28;19923;-81
2023/05/23 13:37:55;;;;;;;;;;;;;;;;;;4944470;28;20323;-82
2023/05/23 13:40:21;;;;;;;;;;;;;;;;;;4942870;29;19923;-82
2023/05/23 13:42:47;;;;;;;;;;;;;;;;;;4941310;29;19969;-82
2023/05/23 13:45:13;;;;;;;;;;;;;;;;;;4961466;28;19929;-81
2023/05/23 13:47:40;;;;;;;;;;;;;;;;;;4976604;28;19922;-82
2023/05/23 13:50:06;;;;;;;;;;;;;;;;;;4976230;28;19930;-81
2023/05/23 13:52:32;;;;;;;;;;;;;;;;;;4949278;29;19922;-82
2023/05/23 13:54:59;;;;;;;;;;;;;;;;;;4940986;29;20302;-82
2023/05/23 13:57:25;;;;;;;;;;;;;;;;;;4941372;29;19927;-82
2023/05/23 13:59:51;;;;;;;;;;;;;;;;;;4944873;29;19922;-82
2023/05/23 14:02:17;;;;;;;;;;;;;;;;;;4940917;29;19930;-82
2023/05/23 14:04:43;;;;;;;;;;;;;;;;;;4956907;29;20307;-82
2023/05/23 14:07:09;;;;;;;;;;;;;;;;;;4961030;28;20396;-82
2023/05/23 14:09:35;;;;;;;;;;;;;;;;;;4960096;28;19934;-82
2023/05/23 14:12:01;;;;;;;;;;;;;;;;;;4959988;28;19945;-82
2023/05/23 14:14:33;;;;;;;;;;;;;;;;;;4948647;28;19922;-82
2023/05/23 14:16:59;;;;;;;;;;;;;;;;;;4956668;29;19981;-82
2023/05/23 14:19:24;;;;;;;;;;;;;;;;;;4940499;29;19922;-82
2023/05/23 14:21:50;;;;;;;;;;;;;;;;;;4962001;28;19980;-82
2023/05/23 14:24:16;;;;;;;;;;;;;;;;;;4955550;28;19926;-81
2023/05/23 14:26:42;;;;;;;;;;;;;;;;;;4959780;28;19926;-81
2023/05/23 14:29:08;;;;;;;;;;;;;;;;;;4951440;29;19923;-82
2023/05/23 14:31:34;;;;;;;;;;;;;;;;;;4956157;29;20415;-82
2023/05/23 14:34:00;;;;;;;;;;;;;;;;;;4956702;29;20380;-81
2023/05/23 14:36:26;;;;;;;;;;;;;;;;;;4950938;28;19976;-82
2023/05/23 14:38:52;;;;;;;;;;;;;;;;;;4950006;29;19945;-82
2023/05/23 14:41:18;;;;;;;;;;;;;;;;;;4940398;29;19923;-81
2023/05/23 14:43:43;;;;;;;;;;;;;;;;;;4956911;28;19922;-81
2023/05/23 14:46:10;;;;;;;;;;;;;;;;;;4966946;28;19926;-81
2023/05/23 14:48:36;;;;;;;;;;;;;;;;;;4951754;28;19926;-82
2023/05/23 14:51:03;;;;;;;;;;;;;;;;;;4959060;28;19927;-82
2023/05/23 14:53:29;;;;;;;;;;;;;;;;;;4954936;28;19976;-82
2023/05/23 14:55:55;;;;;;;;;;;;;;;;;;4956687;28;20311;-82
2023/05/23 14:58:21;;;;;;;;;;;;;;;;;;4939646;29;19922;-82
2023/05/23 15:00:47;;;;;;;;;;;;;;;;;;4939693;29;20394;-82
2023/05/23 15:03:13;;;;;;;;;;;;;;;;;;4939789;29;20022;-81
2023/05/23 15:05:39;;;;;;;;;;;;;;;;;;4971961;28;19993;-82
2023/05/23 15:08:05;;;;;;;;;;;;;;;;;;4974920;28;19993;-81
2023/05/23 15:10:30;;;;;;;;;;;;;;;;;;4951232;29;19930;-82
2023/05/23 15:12:57;;;;;;;;;;;;;;;;;;4943438;29;19922;-82
2023/05/23 15:15:22;;;;;;;;;;;;;;;;;;4939630;29;20347;-82
2023/05/23 15:17:49;;;;;;;;;;;;;;;;;;4939669;29;19923;-81
2023/05/23 15:20:15;;;;;;;;;;;;;;;;;;4948692;28;19926;-82
2023/05/23 15:22:41;;;;;;;;;;;;;;;;;;4958645;28;19929;-81
2023/05/23 15:25:07;;;;;;;;;;;;;;;;;;4957714;28;19973;-82
2023/05/23 15:27:33;;;;;;;;;;;;;;;;;;4958508;28;20380;-81
2023/05/23 15:29:59;;;;;;;;;;;;;;;;;;4958116;28;19926;-82
2023/05/23 15:32:25;;;;;;;;;;;;;;;;;;4963453;28;20446;-82
2023/05/23 15:34:51;;;;;;;;;;;;;;;;;;4957911;28;19922;-82
2023/05/23 15:37:17;;;;;;;;;;;;;;;;;;4957924;28;19933;-82
2023/05/23 15:39:42;;;;;;;;;;;;;;;;;;4957875;28;19973;-82
2023/05/23 15:42:08;;;;;;;;;;;;;;;;;;4958171;28;19988;-82
2023/05/23 15:47:36;;;;;;;;;;;;;;;;;;5111077;27;19912;-83
2023/05/23 15:50:02;;;;;;;;;;;;;;;;;;5072982;28;19924;-82
2023/05/23 15:52:28;;;;;;;;;;;;;;;;;;5072831;28;20361;-82
2023/05/23 15:54:55;;;;;;;;;;;;;;;;;;5071860;28;19920;-82
2023/05/23 15:57:21;;;;;;;;;;;;;;;;;;5116130;27;19930;-82
2023/05/23 15:59:47;;;;;;;;;;;;;;;;;;5089625;28;20375;-82
2023/05/23 16:02:15;;;;;;;;;;;;;;;;;;5072046;28;19920;-82
2023/05/23 16:04:40;;;;;;;;;;;;;;;;;;5103477;28;19920;-82
2023/05/23 16:07:06;;;;;;;;;;;;;;;;;;5105873;28;19925;-82
2023/05/23 16:09:34;;;;;;;;;;;;;;;;;;5104421;28;19936;-82
2023/05/23 16:12:00;;;;;;;;;;;;;;;;;;5121132;28;19921;-82
2023/05/23 16:14:26;;;;;;;;;;;;;;;;;;5119230;27;19966;-82
2023/05/23 16:16:52;;;;;;;;;;;;;;;;;;5088667;28;19924;-82
2023/05/23 16:19:18;;;;;;;;;;;;;;;;;;5105739;28;19920;-82
2023/05/23 16:21:44;;;;;;;;;;;;;;;;;;5105421;28;19943;-82
2023/05/23 16:24:11;;;;;;;;;;;;;;;;;;5105898;28;20365;-82
2023/05/23 16:26:38;;;;;;;;;;;;;;;;;;5088673;28;20011;-82
2023/05/23 16:29:06;;;;;;;;;;;;;;;;;;5105790;28;19970;-82
2023/05/23 16:31:32;;;;;;;;;;;;;;;;;;5105438;28;19959;-82
2023/05/23 16:33:58;;;;;;;;;;;;;;;;;;5089778;28;20348;-82
2023/05/23 16:36:24;;;;;;;;;;;;;;;;;;5091388;28;20381;-82
2023/05/23 16:38:50;;;;;;;;;;;;;;;;;;5105055;28;19924;-82
2023/05/23 16:41:16;;;;;;;;;;;;;;;;;;5105653;28;19948;-82